Media Club - Temptations (The Temptations) (MP3, Photo, Lyrics, Covers)
Legal Info  
newsabout ushelp (faq)searchdirectorylinkssoftwarechartsSwitch Language
 A   B   C   D   E   F   G   H   I   J   K   L   M   N   O   P   Q   R   S   T   U   V   W   X   Y   Z   0...9 
                                                                                  
directory
border=0

  Temptations

Temptations
  Band/Artist:  Temptations
Country:  USA
Genre:  R&B/Soul
Style:
R&B
URL's:  www.thetemptations.com
find track in this albums
Discography:
year title tracks added
(updated)
 Albums
2009 Classic 2009 16 20.02.2013
2009 Merry Christmas 2009 15 20.02.2013
2007 Back To Front 2007 11 16.10.2007
2006 Reflections 2006 15 30.01.2006
2004 Love Songs 2004 14 20.02.2013
2004 Legacy 2004 12 20.02.2013
2003 Psychedelic Soul (CD 1) 2003 13 20.02.2013
2003 Psychedelic Soul (CD 2) 2003 11 20.02.2013
2001 Awesome 2001 14 20.02.2013
2000 Ear-Resistible 2000 14 20.02.2013
2000 Psychedelic Soul 2000 18 20.02.2013
1998 My Girl 1998 20 20.02.2013
1998 Phoenix Rising 1998 13 20.02.2013
1998 The Original Mini-Series Soundtrack 1998 17 20.02.2013
1995 For Lovers Only 1995 12 20.02.2013
1991 Milestone 1991 11 20.02.2013
1989 Papa Was A Rolling Stone 1989 17 20.02.2013
1989 Special 1989 10 20.02.2013
1987 Together Again 1987 9 20.02.2013
1986 To Be Continued... 1986 10 20.02.2013
1985 Touch Me 1985 9 20.02.2013
1984 Truly For You 1984 8 20.02.2013
1983 Surface Thrills 1983 8 20.02.2013
1983 Back To Basics 1983 8 20.02.2013
1982 Reunion 1982 9 20.02.2013
1981 The Temptations 1981 10 20.02.2013
1980 Power 1980 8 20.02.2013
1980 Give Love At Christmas 1980 9 20.02.2013
1978 Bare Back 1978 9 20.02.2013
1977 Hear To Tempt You 1977 9 20.02.2013
1976 Wings Of Love 1976 7 20.02.2013
1976 The Temptations Do The Temptations 1976 8 20.02.2013
1975 A Song For You 1975 9 20.02.2013
1975 House Party 1975 9 20.02.2013
1973 Masterpiece 1973 6 20.02.2013
1973 1990 1973 7 20.02.2013
1972 All Directions 1972 8 20.02.2013
1971 Sky's The Limit 1971 9 20.02.2013
1971 Solid Rock 1971 8 20.02.2013
1970 Psychedelic Shack & All Directions 1970 8 20.02.2013
1970 The Temptations Christmas Card 1970 10 20.02.2013
1969 Cloud Nine 1969 10 20.02.2013
1969 The Temptations Show 1969 13 20.02.2013
1969 Puzzle People 1969 11 20.02.2013
1968 The Temptations Wish It Would Rain 1968 12 20.02.2013
1967 Temptations Live! 1967 17 20.02.2013
1967 With A Lot O' Soul 1967 12 20.02.2013
1967 In A Mellow Mood 1967 12 20.02.2013
1966 Gettin' Ready 1966 14 20.02.2013
1965 The Temptations Sing Smokey 1965 12 20.02.2013
1965 Temptin' Temptations 1965 11 20.02.2013
1964 Meet The Temptations 1964 12 20.02.2013
 Live Albums
2004 Live In Las Vegas '91 2004 20 20.02.2013
1983 One Night In London 1983 16 20.02.2013
1973 In Japan! 1973 12 20.02.2013
1970 Live At London's Talk Of The Town 1970 13 20.02.2013
1968 Live At The Copa 1968 13 20.02.2013
 Compilations, Remixes
2011 50th Anniversary - The Singles Collection, 1961-1971 (CD 1) 2011 28 20.02.2013
2011 50th Anniversary - The Singles Collection, 1961-1971 (CD 2) 2011 27 20.02.2013
2011 50th Anniversary - The Singles Collection, 1961-1971 (CD 3) 2011 26 20.02.2013
2010 Still Here 2010 14 20.02.2013
2008 Playlist Your Way 2008 14 28.08.2008
2008 Playlist Plus (CD 1) 2008 14 20.02.2013
2008 Playlist Plus (CD 2) 2008 14 20.02.2013
2008 Playlist Plus (CD 3) 2008 12 20.02.2013
2008 The Complete Collection (CD 1) Classics 2008 15 20.02.2013
2008 The Complete Collection (CD 2) Favorites 2008 15 20.02.2013
2008 The Complete Collection (CD 3) Discoveries 2008 15 20.02.2013
2008 The Definitive Collection 2008 18 20.02.2013
2006 Soul Legends 2006 24 20.02.2013
2002 My Girl - The Very Best Of The Temptations (CD 1) 2002 19 20.02.2013
2002 My Girl - The Very Best Of The Temptations (CD 2) 2002 17 20.02.2013
2001 At Their Very Best (CD 1) 2001 21 20.02.2013
2001 At Their Very Best (CD 2) 2001 20 20.02.2013
2001 The Very Best Of The Temptations Christmas 2001 12 11.11.2016
2000 20th Century Masters - The Millennium Collection - The Best Of The Temptations, Vol. 1 2000 11 20.02.2013
2000 20th Century Masters - The Millennium Collection - The Best Of The Temptations, Vol. 2 2000 11 20.02.2013
1999 Lost And Found - You've Got To Earn It (1962-1968) 1999 20 20.02.2013
1997 The Ultimate Collection 1997 21 20.02.2013
1995 The Best Of The Temptations (CD 1) 1995 27 20.02.2013
1995 The Best Of The Temptations (CD 2) 1995 19 20.02.2013
1994 Emperors Of Soul (CD 1) 1994 28 20.02.2013
1994 Emperors Of Soul (CD 2) 1994 26 20.02.2013
1994 Emperors Of Soul (CD 3) 1994 20 20.02.2013
1994 Emperors Of Soul (CD 4) 1994 19 20.02.2013
1994 Emperors Of Soul (CD 5) 1994 17 20.02.2013
1993 Hum Along And Dance - More Of The Best (1963-1974) 1993 18 20.02.2013
1992 Motown's Greatest Hits 1992 21 20.02.2013
1990 17 Greatest Hits 1990 17 20.02.2013
1986 Anthology (CD 1) 1986 23 20.02.2013
1986 Anthology (CD 2) 1986 19 20.02.2013
1970 Greatest Hits II 1970 12 20.02.2013
1966 Greatest Hits 1966 12 20.02.2013
 Tributes
L 0.00 / D 0.00 2019 29 32028.03.2019
Status: Guest
SEARCH
Пользовательского поиска
LOOK ALSO
more info
HISTORY OF ADDITIONS
Mn Tu We Th Fr Sa Su
     1  2  3  4  5
 6  7  8  9  10  11  12
 13  14  15  16  17  18  19
 20  21  22  23  24  25  26
 27  28  29  30  31    
go top

Media ClubCreated by TDG